sensor_id;sensor_type;location;lat;lon;timestamp;temperature;humidity
69715;HTU21D;56981;53.532;49.398;2022-07-06T00:01:25;11.38;80.80
69715;HTU21D;56981;53.532;49.398;2022-07-06T00:03:51;11.38;80.88
69715;HTU21D;56981;53.532;49.398;2022-07-06T00:06:17;11.34;80.81
69715;HTU21D;56981;53.532;49.398;2022-07-06T00:08:43;11.39;81.57
69715;HTU21D;56981;53.532;49.398;2022-07-06T00:11:09;11.43;81.68
69715;HTU21D;56981;53.532;49.398;2022-07-06T00:13:35;11.49;81.69
69715;HTU21D;56981;53.532;49.398;2022-07-06T00:16:01;11.49;80.52
69715;HTU21D;56981;53.532;49.398;2022-07-06T00:18:27;11.47;80.07
69715;HTU21D;56981;53.532;49.398;2022-07-06T00:20:53;11.47;79.57
69715;HTU21D;56981;53.532;49.398;2022-07-06T00:23:18;11.44;80.55
69715;HTU21D;56981;53.532;49.398;2022-07-06T00:25:44;11.40;80.33
69715;HTU21D;56981;53.532;49.398;2022-07-06T00:28:10;11.34;80.52
69715;HTU21D;56981;53.532;49.398;2022-07-06T00:30:36;11.27;81.33
69715;HTU21D;56981;53.532;49.398;2022-07-06T00:33:02;11.23;81.52
69715;HTU21D;56981;53.532;49.398;2022-07-06T00:35:28;11.24;82.06
69715;HTU21D;56981;53.532;49.398;2022-07-06T00:37:54;11.25;82.04
69715;HTU21D;56981;53.532;49.398;2022-07-06T00:40:20;11.30;82.27
69715;HTU21D;56981;53.532;49.398;2022-07-06T00:42:46;11.37;82.36
69715;HTU21D;56981;53.532;49.398;2022-07-06T00:45:13;11.81;79.71
69715;HTU21D;56981;53.532;49.398;2022-07-06T00:47:39;12.29;77.50
69715;HTU21D;56981;53.532;49.398;2022-07-06T00:50:06;12.87;74.98
69715;HTU21D;56981;53.532;49.398;2022-07-06T00:52:44;13.48;73.60
69715;HTU21D;56981;53.532;49.398;2022-07-06T00:55:11;13.98;71.42
69715;HTU21D;56981;53.532;49.398;2022-07-06T00:57:37;14.54;68.58
69715;HTU21D;56981;53.532;49.398;2022-07-06T01:00:04;15.01;66.31
69715;HTU21D;56981;53.532;49.398;2022-07-06T01:02:33;15.25;66.13
69715;HTU21D;56981;53.532;49.398;2022-07-06T01:04:59;15.31;65.01
69715;HTU21D;56981;53.532;49.398;2022-07-06T01:07:25;14.84;66.57
69715;HTU21D;56981;53.532;49.398;2022-07-06T01:09:51;14.50;68.71
69715;HTU21D;56981;53.532;49.398;2022-07-06T01:12:17;15.12;66.92
69715;HTU21D;56981;53.532;49.398;2022-07-06T01:14:43;15.93;64.50
69715;HTU21D;56981;53.532;49.398;2022-07-06T01:17:10;16.72;61.98
69715;HTU21D;56981;53.532;49.398;2022-07-06T01:19:36;17.39;58.93
69715;HTU21D;56981;53.532;49.398;2022-07-06T01:22:02;17.88;57.26
69715;HTU21D;56981;53.532;49.398;2022-07-06T01:24:28;18.46;55.66
69715;HTU21D;56981;53.532;49.398;2022-07-06T01:26:54;19.17;53.10
69715;HTU21D;56981;53.532;49.398;2022-07-06T01:29:19;19.66;52.32
69715;HTU21D;56981;53.532;49.398;2022-07-06T01:31:46;20.37;50.20
69715;HTU21D;56981;53.532;49.398;2022-07-06T01:34:14;20.61;48.81
69715;HTU21D;56981;53.532;49.398;2022-07-06T01:36:40;20.83;48.33
69715;HTU21D;56981;53.532;49.398;2022-07-06T01:39:07;21.28;47.63
69715;HTU21D;56981;53.532;49.398;2022-07-06T01:41:33;21.90;46.73
69715;HTU21D;56981;53.532;49.398;2022-07-06T01:43:59;22.17;45.66
69715;HTU21D;56981;53.532;49.398;2022-07-06T01:46:25;22.48;45.33
69715;HTU21D;56981;53.532;49.398;2022-07-06T01:48:51;22.95;44.08
69715;HTU21D;56981;53.532;49.398;2022-07-06T01:51:18;23.31;43.45
69715;HTU21D;56981;53.532;49.398;2022-07-06T01:53:44;23.82;42.39
69715;HTU21D;56981;53.532;49.398;2022-07-06T01:56:10;24.27;41.52
69715;HTU21D;56981;53.532;49.398;2022-07-06T01:58:37;24.82;40.39
69715;HTU21D;56981;53.532;49.398;2022-07-06T02:01:06;25.30;39.64
69715;HTU21D;56981;53.532;49.398;2022-07-06T02:03:33;25.62;38.80
69715;HTU21D;56981;53.532;49.398;2022-07-06T02:05:59;25.84;38.56
69715;HTU21D;56981;53.532;49.398;2022-07-06T02:08:25;26.10;38.14
69715;HTU21D;56981;53.532;49.398;2022-07-06T02:10:51;26.01;38.57
69715;HTU21D;56981;53.532;49.398;2022-07-06T02:13:17;26.33;38.32
69715;HTU21D;56981;53.532;49.398;2022-07-06T02:15:43;26.80;37.62
69715;HTU21D;56981;53.532;49.398;2022-07-06T02:18:09;27.16;36.78
69715;HTU21D;56981;53.532;49.398;2022-07-06T02:20:35;27.59;36.41
69715;HTU21D;56981;53.532;49.398;2022-07-06T02:23:01;28.20;35.15
69715;HTU21D;56981;53.532;49.398;2022-07-06T02:25:27;28.19;35.77
69715;HTU21D;56981;53.532;49.398;2022-07-06T02:27:52;28.35;36.11
69715;HTU21D;56981;53.532;49.398;2022-07-06T02:30:18;28.73;35.75
69715;HTU21D;56981;53.532;49.398;2022-07-06T02:32:45;28.85;36.07
69715;HTU21D;56981;53.532;49.398;2022-07-06T02:35:11;29.34;35.72
69715;HTU21D;56981;53.532;49.398;2022-07-06T02:37:37;29.57;35.82
69715;HTU21D;56981;53.532;49.398;2022-07-06T02:40:03;29.63;35.82
69715;HTU21D;56981;53.532;49.398;2022-07-06T02:42:29;30.07;35.15
69715;HTU21D;56981;53.532;49.398;2022-07-06T02:44:55;30.19;34.88
69715;HTU21D;56981;53.532;49.398;2022-07-06T02:47:21;30.38;34.40
69715;HTU21D;56981;53.532;49.398;2022-07-06T02:49:47;30.55;34.41
69715;HTU21D;56981;53.532;49.398;2022-07-06T02:52:13;30.95;34.22
69715;HTU21D;56981;53.532;49.398;2022-07-06T02:54:39;31.13;33.50
69715;HTU21D;56981;53.532;49.398;2022-07-06T02:57:05;31.14;33.47
69715;HTU21D;56981;53.532;49.398;2022-07-06T02:59:31;31.28;33.10
69715;HTU21D;56981;53.532;49.398;2022-07-06T03:01:57;31.28;33.49
69715;HTU21D;56981;53.532;49.398;2022-07-06T03:04:22;31.28;32.78
69715;HTU21D;56981;53.532;49.398;2022-07-06T03:06:48;31.75;32.02
69715;HTU21D;56981;53.532;49.398;2022-07-06T03:09:14;31.59;32.77
69715;HTU21D;56981;53.532;49.398;2022-07-06T03:11:40;31.40;31.40
69715;HTU21D;56981;53.532;49.398;2022-07-06T03:14:06;31.11;33.06
69715;HTU21D;56981;53.532;49.398;2022-07-06T03:16:32;31.57;32.41
69715;HTU21D;56981;53.532;49.398;2022-07-06T03:18:58;32.08;30.80
69715;HTU21D;56981;53.532;49.398;2022-07-06T03:21:24;31.84;31.79
69715;HTU21D;56981;53.532;49.398;2022-07-06T03:23:50;32.48;30.63
69715;HTU21D;56981;53.532;49.398;2022-07-06T03:26:16;32.48;29.77
69715;HTU21D;56981;53.532;49.398;2022-07-06T03:28:42;32.88;29.75
69715;HTU21D;56981;53.532;49.398;2022-07-06T03:31:08;32.86;29.16
69715;HTU21D;56981;53.532;49.398;2022-07-06T03:33:34;32.77;28.30
69715;HTU21D;56981;53.532;49.398;2022-07-06T03:35:59;32.48;29.55
69715;HTU21D;56981;53.532;49.398;2022-07-06T03:38:25;32.38;29.52
69715;HTU21D;56981;53.532;49.398;2022-07-06T03:40:51;32.57;29.58
69715;HTU21D;56981;53.532;49.398;2022-07-06T03:43:17;32.88;29.57
69715;HTU21D;56981;53.532;49.398;2022-07-06T03:45:43;33.04;28.61
69715;HTU21D;56981;53.532;49.398;2022-07-06T03:48:09;33.18;27.55
69715;HTU21D;56981;53.532;49.398;2022-07-06T03:50:35;33.16;27.07
69715;HTU21D;56981;53.532;49.398;2022-07-06T03:53:01;32.76;27.62
69715;HTU21D;56981;53.532;49.398;2022-07-06T03:55:27;32.35;29.68
69715;HTU21D;56981;53.532;49.398;2022-07-06T03:57:52;31.99;29.35
69715;HTU21D;56981;53.532;49.398;2022-07-06T04:00:18;32.15;28.84
69715;HTU21D;56981;53.532;49.398;2022-07-06T04:02:44;32.35;29.51
69715;HTU21D;56981;53.532;49.398;2022-07-06T04:05:10;32.54;29.55
69715;HTU21D;56981;53.532;49.398;2022-07-06T04:07:36;32.91;29.42
69715;HTU21D;56981;53.532;49.398;2022-07-06T04:10:02;32.45;29.40
69715;HTU21D;56981;53.532;49.398;2022-07-06T04:12:28;32.86;28.26
69715;HTU21D;56981;53.532;49.398;2022-07-06T04:14:56;32.97;28.75
69715;HTU21D;56981;53.532;49.398;2022-07-06T04:17:21;32.87;28.92
69715;HTU21D;56981;53.532;49.398;2022-07-06T04:20:06;32.92;29.96
69715;HTU21D;56981;53.532;49.398;2022-07-06T04:22:32;32.60;29.45
69715;HTU21D;56981;53.532;49.398;2022-07-06T04:24:58;32.70;29.03
69715;HTU21D;56981;53.532;49.398;2022-07-06T04:27:24;32.98;28.75
69715;HTU21D;56981;53.532;49.398;2022-07-06T04:29:50;32.91;28.84
69715;HTU21D;56981;53.532;49.398;2022-07-06T04:32:15;32.79;28.62
69715;HTU21D;56981;53.532;49.398;2022-07-06T04:34:41;33.05;28.24
69715;HTU21D;56981;53.532;49.398;2022-07-06T04:37:07;33.15;28.93
69715;HTU21D;56981;53.532;49.398;2022-07-06T04:39:33;33.41;28.99
69715;HTU21D;56981;53.532;49.398;2022-07-06T04:41:59;33.53;28.04
69715;HTU21D;56981;53.532;49.398;2022-07-06T04:44:25;33.52;27.72
69715;HTU21D;56981;53.532;49.398;2022-07-06T04:46:51;33.40;27.33
69715;HTU21D;56981;53.532;49.398;2022-07-06T04:49:16;33.07;27.24
69715;HTU21D;56981;53.532;49.398;2022-07-06T04:51:42;33.12;26.85
69715;HTU21D;56981;53.532;49.398;2022-07-06T04:54:08;32.93;27.55
69715;HTU21D;56981;53.532;49.398;2022-07-06T04:56:34;32.87;25.80
69715;HTU21D;56981;53.532;49.398;2022-07-06T04:59:00;32.94;26.90
69715;HTU21D;56981;53.532;49.398;2022-07-06T05:01:26;33.34;27.13
69715;HTU21D;56981;53.532;49.398;2022-07-06T05:03:51;33.70;25.52
69715;HTU21D;56981;53.532;49.398;2022-07-06T05:06:17;33.87;26.69
69715;HTU21D;56981;53.532;49.398;2022-07-06T05:08:45;34.05;25.56
69715;HTU21D;56981;53.532;49.398;2022-07-06T05:11:11;34.06;24.68
69715;HTU21D;56981;53.532;49.398;2022-07-06T05:13:37;33.97;25.99
69715;HTU21D;56981;53.532;49.398;2022-07-06T05:16:03;33.99;25.16
69715;HTU21D;56981;53.532;49.398;2022-07-06T05:18:29;33.99;23.60
69715;HTU21D;56981;53.532;49.398;2022-07-06T05:20:55;33.89;24.64
69715;HTU21D;56981;53.532;49.398;2022-07-06T05:23:21;33.91;24.19
69715;HTU21D;56981;53.532;49.398;2022-07-06T05:25:47;33.94;24.60
69715;HTU21D;56981;53.532;49.398;2022-07-06T05:28:13;33.96;25.03
69715;HTU21D;56981;53.532;49.398;2022-07-06T05:30:39;33.88;25.28
69715;HTU21D;56981;53.532;49.398;2022-07-06T05:33:05;33.72;25.79
69715;HTU21D;56981;53.532;49.398;2022-07-06T05:35:30;33.55;23.97
69715;HTU21D;56981;53.532;49.398;2022-07-06T05:37:56;33.46;24.85
69715;HTU21D;56981;53.532;49.398;2022-07-06T05:40:22;33.78;24.91
69715;HTU21D;56981;53.532;49.398;2022-07-06T05:42:48;33.95;24.52
69715;HTU21D;56981;53.532;49.398;2022-07-06T05:45:14;33.42;24.86
69715;HTU21D;56981;53.532;49.398;2022-07-06T05:47:40;33.34;25.09
69715;HTU21D;56981;53.532;49.398;2022-07-06T05:50:24;33.42;24.20
69715;HTU21D;56981;53.532;49.398;2022-07-06T05:53:00;33.34;23.95
69715;HTU21D;56981;53.532;49.398;2022-07-06T05:55:26;33.66;22.85
69715;HTU21D;56981;53.532;49.398;2022-07-06T05:57:53;33.85;23.36
69715;HTU21D;56981;53.532;49.398;2022-07-06T06:00:20;33.19;23.73
69715;HTU21D;56981;53.532;49.398;2022-07-06T06:02:46;33.38;24.08
69715;HTU21D;56981;53.532;49.398;2022-07-06T06:05:13;33.57;23.11
69715;HTU21D;56981;53.532;49.398;2022-07-06T06:07:39;33.55;22.13
69715;HTU21D;56981;53.532;49.398;2022-07-06T06:10:08;33.66;22.53
69715;HTU21D;56981;53.532;49.398;2022-07-06T06:12:35;33.49;23.39
69715;HTU21D;56981;53.532;49.398;2022-07-06T06:15:01;33.71;24.30
69715;HTU21D;56981;53.532;49.398;2022-07-06T06:17:26;33.47;23.05
69715;HTU21D;56981;53.532;49.398;2022-07-06T06:19:52;33.41;22.23
69715;HTU21D;56981;53.532;49.398;2022-07-06T06:22:18;33.68;23.02
69715;HTU21D;56981;53.532;49.398;2022-07-06T06:24:44;33.53;22.50
69715;HTU21D;56981;53.532;49.398;2022-07-06T06:27:11;33.30;22.91
69715;HTU21D;56981;53.532;49.398;2022-07-06T06:29:37;33.43;24.04
69715;HTU21D;56981;53.532;49.398;2022-07-06T06:32:03;33.26;23.65
69715;HTU21D;56981;53.532;49.398;2022-07-06T06:34:31;33.23;23.11
69715;HTU21D;56981;53.532;49.398;2022-07-06T06:36:57;33.43;21.68
69715;HTU21D;56981;53.532;49.398;2022-07-06T06:39:23;33.27;23.28
69715;HTU21D;56981;53.532;49.398;2022-07-06T06:41:49;33.28;23.20
69715;HTU21D;56981;53.532;49.398;2022-07-06T06:44:15;33.19;21.16
69715;HTU21D;56981;53.532;49.398;2022-07-06T06:46:41;32.74;22.55
69715;HTU21D;56981;53.532;49.398;2022-07-06T06:49:07;32.79;22.53
69715;HTU21D;56981;53.532;49.398;2022-07-06T06:51:33;33.12;21.54
69715;HTU21D;56981;53.532;49.398;2022-07-06T06:53:59;32.98;22.85
69715;HTU21D;56981;53.532;49.398;2022-07-06T06:56:25;32.92;23.17
69715;HTU21D;56981;53.532;49.398;2022-07-06T06:58:50;33.19;22.00
69715;HTU21D;56981;53.532;49.398;2022-07-06T07:01:16;33.09;21.92
69715;HTU21D;56981;53.532;49.398;2022-07-06T07:03:42;32.69;23.40
69715;HTU21D;56981;53.532;49.398;2022-07-06T07:06:08;32.84;24.11
69715;HTU21D;56981;53.532;49.398;2022-07-06T07:08:34;32.93;25.71
69715;HTU21D;56981;53.532;49.398;2022-07-06T07:11:00;32.81;23.36
69715;HTU21D;56981;53.532;49.398;2022-07-06T07:13:25;32.48;23.72
69715;HTU21D;56981;53.532;49.398;2022-07-06T07:15:52;32.67;22.90
69715;HTU21D;56981;53.532;49.398;2022-07-06T07:18:18;32.64;23.30
69715;HTU21D;56981;53.532;49.398;2022-07-06T07:20:43;31.83;23.93
69715;HTU21D;56981;53.532;49.398;2022-07-06T07:23:09;32.00;24.75
69715;HTU21D;56981;53.532;49.398;2022-07-06T07:25:35;32.15;23.79
69715;HTU21D;56981;53.532;49.398;2022-07-06T07:28:04;31.93;23.37
69715;HTU21D;56981;53.532;49.398;2022-07-06T07:30:30;32.05;23.55
69715;HTU21D;56981;53.532;49.398;2022-07-06T07:32:56;32.14;22.80
69715;HTU21D;56981;53.532;49.398;2022-07-06T07:35:22;32.11;23.57
69715;HTU21D;56981;53.532;49.398;2022-07-06T07:37:48;32.11;24.17
69715;HTU21D;56981;53.532;49.398;2022-07-06T07:40:14;32.12;24.21
69715;HTU21D;56981;53.532;49.398;2022-07-06T07:42:40;32.02;23.72
69715;HTU21D;56981;53.532;49.398;2022-07-06T07:45:07;32.15;23.52
69715;HTU21D;56981;53.532;49.398;2022-07-06T07:47:33;32.03;22.52
69715;HTU21D;56981;53.532;49.398;2022-07-06T07:49:59;31.83;23.34
69715;HTU21D;56981;53.532;49.398;2022-07-06T07:52:25;31.56;23.72
69715;HTU21D;56981;53.532;49.398;2022-07-06T07:54:51;31.51;25.58
69715;HTU21D;56981;53.532;49.398;2022-07-06T07:57:17;31.72;24.85
69715;HTU21D;56981;53.532;49.398;2022-07-06T07:59:43;31.74;24.79
69715;HTU21D;56981;53.532;49.398;2022-07-06T08:02:08;31.82;23.71
69715;HTU21D;56981;53.532;49.398;2022-07-06T08:04:34;31.69;23.65
69715;HTU21D;56981;53.532;49.398;2022-07-06T08:07:00;31.42;24.67
69715;HTU21D;56981;53.532;49.398;2022-07-06T08:09:26;31.51;25.21
69715;HTU21D;56981;53.532;49.398;2022-07-06T08:11:52;31.74;25.19
69715;HTU21D;56981;53.532;49.398;2022-07-06T08:14:18;31.71;24.27
69715;HTU21D;56981;53.532;49.398;2022-07-06T08:16:44;31.43;25.23
69715;HTU21D;56981;53.532;49.398;2022-07-06T08:19:09;31.54;24.80
69715;HTU21D;56981;53.532;49.398;2022-07-06T08:21:39;31.04;25.52
69715;HTU21D;56981;53.532;49.398;2022-07-06T08:24:05;31.08;26.12
69715;HTU21D;56981;53.532;49.398;2022-07-06T08:26:31;30.99;25.56
69715;HTU21D;56981;53.532;49.398;2022-07-06T08:28:57;30.74;26.10
69715;HTU21D;56981;53.532;49.398;2022-07-06T08:31:23;30.78;26.39
69715;HTU21D;56981;53.532;49.398;2022-07-06T08:33:49;30.26;27.81
69715;HTU21D;56981;53.532;49.398;2022-07-06T08:36:14;30.00;27.12
69715;HTU21D;56981;53.532;49.398;2022-07-06T08:38:40;29.74;27.92
69715;HTU21D;56981;53.532;49.398;2022-07-06T08:41:06;30.11;26.84
69715;HTU21D;56981;53.532;49.398;2022-07-06T08:43:33;30.15;27.63
69715;HTU21D;56981;53.532;49.398;2022-07-06T08:45:59;30.08;29.40
69715;HTU21D;56981;53.532;49.398;2022-07-06T08:48:25;29.87;28.58
69715;HTU21D;56981;53.532;49.398;2022-07-06T08:50:53;29.49;28.48
69715;HTU21D;56981;53.532;49.398;2022-07-06T08:53:20;29.42;29.51
69715;HTU21D;56981;53.532;49.398;2022-07-06T08:55:47;29.47;29.32
69715;HTU21D;56981;53.532;49.398;2022-07-06T08:58:13;29.51;29.32
69715;HTU21D;56981;53.532;49.398;2022-07-06T09:00:39;29.08;29.48
69715;HTU21D;56981;53.532;49.398;2022-07-06T09:03:05;28.83;30.05
69715;HTU21D;56981;53.532;49.398;2022-07-06T09:05:31;28.75;30.73
69715;HTU21D;56981;53.532;49.398;2022-07-06T09:07:58;28.88;31.44
69715;HTU21D;56981;53.532;49.398;2022-07-06T09:10:24;28.84;30.04
69715;HTU21D;56981;53.532;49.398;2022-07-06T09:12:51;28.77;31.95
69715;HTU21D;56981;53.532;49.398;2022-07-06T09:15:17;28.50;29.94
69715;HTU21D;56981;53.532;49.398;2022-07-06T09:17:43;28.60;30.81
69715;HTU21D;56981;53.532;49.398;2022-07-06T09:20:10;28.64;30.49
69715;HTU21D;56981;53.532;49.398;2022-07-06T09:22:36;28.37;30.22
69715;HTU21D;56981;53.532;49.398;2022-07-06T09:27:41;28.37;31.93
69715;HTU21D;56981;53.532;49.398;2022-07-06T09:30:08;28.40;31.80
69715;HTU21D;56981;53.532;49.398;2022-07-06T09:35:06;28.30;31.77
69715;HTU21D;56981;53.532;49.398;2022-07-06T09:37:32;28.31;33.48
69715;HTU21D;56981;53.532;49.398;2022-07-06T09:39:58;28.44;32.78
69715;HTU21D;56981;53.532;49.398;2022-07-06T09:42:24;28.48;32.97
69715;HTU21D;56981;53.532;49.398;2022-07-06T09:44:51;28.44;32.51
69715;HTU21D;56981;53.532;49.398;2022-07-06T09:47:17;28.34;32.40
69715;HTU21D;56981;53.532;49.398;2022-07-06T09:49:45;28.19;33.29
69715;HTU21D;56981;53.532;49.398;2022-07-06T09:52:11;28.27;32.48
69715;HTU21D;56981;53.532;49.398;2022-07-06T09:54:38;28.02;33.55
69715;HTU21D;56981;53.532;49.398;2022-07-06T09:57:04;27.76;33.30
69715;HTU21D;56981;53.532;49.398;2022-07-06T09:59:31;27.52;34.91
69715;HTU21D;56981;53.532;49.398;2022-07-06T10:01:58;27.68;34.88
69715;HTU21D;56981;53.532;49.398;2022-07-06T10:04:24;27.72;32.93
69715;HTU21D;56981;53.532;49.398;2022-07-06T10:06:51;27.57;33.41
69715;HTU21D;56981;53.532;49.398;2022-07-06T10:09:18;27.76;32.54
69715;HTU21D;56981;53.532;49.398;2022-07-06T10:11:54;27.64;32.98
69715;HTU21D;56981;53.532;49.398;2022-07-06T10:14:21;27.56;33.42
69715;HTU21D;56981;53.532;49.398;2022-07-06T10:16:48;27.14;33.70
69715;HTU21D;56981;53.532;49.398;2022-07-06T10:19:14;27.25;34.91
69715;HTU21D;56981;53.532;49.398;2022-07-06T10:21:41;27.30;34.22
69715;HTU21D;56981;53.532;49.398;2022-07-06T10:24:07;27.51;34.79
69715;HTU21D;56981;53.532;49.398;2022-07-06T10:26:34;27.61;34.95
69715;HTU21D;56981;53.532;49.398;2022-07-06T10:29:01;27.69;35.27
69715;HTU21D;56981;53.532;49.398;2022-07-06T10:31:27;27.47;34.55
69715;HTU21D;56981;53.532;49.398;2022-07-06T10:33:56;27.28;34.62
69715;HTU21D;56981;53.532;49.398;2022-07-06T10:36:22;27.21;34.78
69715;HTU21D;56981;53.532;49.398;2022-07-06T10:38:49;27.22;34.85
69715;HTU21D;56981;53.532;49.398;2022-07-06T10:41:16;27.12;34.62
69715;HTU21D;56981;53.532;49.398;2022-07-06T10:43:42;26.76;36.10
69715;HTU21D;56981;53.532;49.398;2022-07-06T10:46:09;26.83;36.51
69715;HTU21D;56981;53.532;49.398;2022-07-06T10:48:46;26.90;35.39
69715;HTU21D;56981;53.532;49.398;2022-07-06T10:51:12;26.97;36.75
69715;HTU21D;56981;53.532;49.398;2022-07-06T10:53:49;26.95;35.34
69715;HTU21D;56981;53.532;49.398;2022-07-06T10:56:20;26.73;35.85
69715;HTU21D;56981;53.532;49.398;2022-07-06T10:58:56;26.83;35.95
69715;HTU21D;56981;53.532;49.398;2022-07-06T11:01:27;26.69;35.63
69715;HTU21D;56981;53.532;49.398;2022-07-06T11:06:24;26.78;35.89
69715;HTU21D;56981;53.532;49.398;2022-07-06T11:09:00;26.81;36.11
69715;HTU21D;56981;53.532;49.398;2022-07-06T11:11:37;26.52;35.09
69715;HTU21D;56981;53.532;49.398;2022-07-06T11:14:06;26.55;34.76
69715;HTU21D;56981;53.532;49.398;2022-07-06T11:16:33;26.53;36.21
69715;HTU21D;56981;53.532;49.398;2022-07-06T11:21:33;26.52;36.96
69715;HTU21D;56981;53.532;49.398;2022-07-06T11:23:59;26.30;36.45
69715;HTU21D;56981;53.532;49.398;2022-07-06T11:26:25;26.37;36.95
69715;HTU21D;56981;53.532;49.398;2022-07-06T11:28:52;26.53;35.31
69715;HTU21D;56981;53.532;49.398;2022-07-06T11:31:18;26.25;34.88
69715;HTU21D;56981;53.532;49.398;2022-07-06T11:33:45;26.34;35.79
69715;HTU21D;56981;53.532;49.398;2022-07-06T11:36:15;26.37;35.86
69715;HTU21D;56981;53.532;49.398;2022-07-06T11:38:41;26.41;35.44
69715;HTU21D;56981;53.532;49.398;2022-07-06T11:41:08;26.52;36.60
69715;HTU21D;56981;53.532;49.398;2022-07-06T11:43:34;26.57;35.76
69715;HTU21D;56981;53.532;49.398;2022-07-06T11:45:59;26.54;35.96
69715;HTU21D;56981;53.532;49.398;2022-07-06T11:48:25;26.62;36.34
69715;HTU21D;56981;53.532;49.398;2022-07-06T11:51:01;26.70;36.75
69715;HTU21D;56981;53.532;49.398;2022-07-06T11:53:27;26.64;35.55
69715;HTU21D;56981;53.532;49.398;2022-07-06T11:55:53;26.48;36.63
69715;HTU21D;56981;53.532;49.398;2022-07-06T11:58:20;26.33;36.83
69715;HTU21D;56981;53.532;49.398;2022-07-06T12:01:08;26.45;36.73
69715;HTU21D;56981;53.532;49.398;2022-07-06T12:03:35;26.51;37.14
69715;HTU21D;56981;53.532;49.398;2022-07-06T12:06:22;26.54;36.51
69715;HTU21D;56981;53.532;49.398;2022-07-06T12:11:17;26.36;37.35
69715;HTU21D;56981;53.532;49.398;2022-07-06T12:13:44;26.26;38.69
69715;HTU21D;56981;53.532;49.398;2022-07-06T12:16:13;26.17;37.88
69715;HTU21D;56981;53.532;49.398;2022-07-06T12:18:41;26.23;39.65
69715;HTU21D;56981;53.532;49.398;2022-07-06T12:21:08;26.35;39.06
69715;HTU21D;56981;53.532;49.398;2022-07-06T12:23:38;26.33;39.27
69715;HTU21D;56981;53.532;49.398;2022-07-06T12:26:04;26.33;40.58
69715;HTU21D;56981;53.532;49.398;2022-07-06T12:28:30;26.23;37.81
69715;HTU21D;56981;53.532;49.398;2022-07-06T12:30:56;26.23;39.33
69715;HTU21D;56981;53.532;49.398;2022-07-06T12:33:22;26.26;39.63
69715;HTU21D;56981;53.532;49.398;2022-07-06T12:35:49;26.24;39.52
69715;HTU21D;56981;53.532;49.398;2022-07-06T12:38:48;26.18;38.51
69715;HTU21D;56981;53.532;49.398;2022-07-06T12:41:07;26.31;38.91
69715;HTU21D;56981;53.532;49.398;2022-07-06T12:43:40;26.34;39.68
69715;HTU21D;56981;53.532;49.398;2022-07-06T12:48:51;26.38;39.78
69715;HTU21D;56981;53.532;49.398;2022-07-06T12:51:18;26.24;38.71
69715;HTU21D;56981;53.532;49.398;2022-07-06T12:53:44;26.18;39.16
69715;HTU21D;56981;53.532;49.398;2022-07-06T12:56:10;26.06;37.98
69715;HTU21D;56981;53.532;49.398;2022-07-06T12:58:36;25.96;38.82
69715;HTU21D;56981;53.532;49.398;2022-07-06T13:01:02;25.95;40.09
69715;HTU21D;56981;53.532;49.398;2022-07-06T13:03:37;25.89;39.03
69715;HTU21D;56981;53.532;49.398;2022-07-06T13:06:04;25.87;39.70
69715;HTU21D;56981;53.532;49.398;2022-07-06T13:08:30;25.92;39.49
69715;HTU21D;56981;53.532;49.398;2022-07-06T13:10:56;25.84;38.52
69715;HTU21D;56981;53.532;49.398;2022-07-06T13:13:22;25.76;37.45
69715;HTU21D;56981;53.532;49.398;2022-07-06T13:15:48;25.78;39.60
69715;HTU21D;56981;53.532;49.398;2022-07-06T13:18:16;25.88;38.65
69715;HTU21D;56981;53.532;49.398;2022-07-06T13:20:44;25.94;37.43
69715;HTU21D;56981;53.532;49.398;2022-07-06T13:23:10;25.90;38.90
69715;HTU21D;56981;53.532;49.398;2022-07-06T13:25:36;25.78;38.51
69715;HTU21D;56981;53.532;49.398;2022-07-06T13:28:02;25.77;39.18
69715;HTU21D;56981;53.532;49.398;2022-07-06T13:30:28;25.73;39.07
69715;HTU21D;56981;53.532;49.398;2022-07-06T13:32:53;25.74;39.52
69715;HTU21D;56981;53.532;49.398;2022-07-06T13:35:19;25.75;39.47
69715;HTU21D;56981;53.532;49.398;2022-07-06T13:37:45;25.72;39.17
69715;HTU21D;56981;53.532;49.398;2022-07-06T13:40:14;25.67;38.28
69715;HTU21D;56981;53.532;49.398;2022-07-06T13:42:40;25.74;37.75
69715;HTU21D;56981;53.532;49.398;2022-07-06T13:45:06;25.78;38.14
69715;HTU21D;56981;53.532;49.398;2022-07-06T13:47:32;25.84;38.41
69715;HTU21D;56981;53.532;49.398;2022-07-06T13:49:58;25.78;37.95
69715;HTU21D;56981;53.532;49.398;2022-07-06T13:52:24;25.75;38.19
69715;HTU21D;56981;53.532;49.398;2022-07-06T13:54:50;25.69;39.68
69715;HTU21D;56981;53.532;49.398;2022-07-06T13:57:16;25.61;38.49
69715;HTU21D;56981;53.532;49.398;2022-07-06T13:59:41;25.54;38.83
69715;HTU21D;56981;53.532;49.398;2022-07-06T14:02:08;25.54;39.31
69715;HTU21D;56981;53.532;49.398;2022-07-06T14:04:34;25.54;38.77
69715;HTU21D;56981;53.532;49.398;2022-07-06T14:07:00;25.50;39.95
69715;HTU21D;56981;53.532;49.398;2022-07-06T14:09:26;25.50;40.10
69715;HTU21D;56981;53.532;49.398;2022-07-06T14:11:53;25.49;40.59
69715;HTU21D;56981;53.532;49.398;2022-07-06T14:14:19;25.35;40.62
69715;HTU21D;56981;53.532;49.398;2022-07-06T14:16:45;25.33;39.71
69715;HTU21D;56981;53.532;49.398;2022-07-06T14:19:11;25.28;39.96
69715;HTU21D;56981;53.532;49.398;2022-07-06T14:21:37;25.30;40.91
69715;HTU21D;56981;53.532;49.398;2022-07-06T14:24:03;25.23;39.58
69715;HTU21D;56981;53.532;49.398;2022-07-06T14:26:29;25.23;39.47
69715;HTU21D;56981;53.532;49.398;2022-07-06T14:28:55;25.21;39.32
69715;HTU21D;56981;53.532;49.398;2022-07-06T14:31:21;25.16;39.15
69715;HTU21D;56981;53.532;49.398;2022-07-06T14:33:47;25.21;39.96
69715;HTU21D;56981;53.532;49.398;2022-07-06T14:36:14;25.15;38.76
69715;HTU21D;56981;53.532;49.398;2022-07-06T14:38:40;25.10;40.37
69715;HTU21D;56981;53.532;49.398;2022-07-06T14:41:05;25.09;40.58
69715;HTU21D;56981;53.532;49.398;2022-07-06T14:43:31;25.04;39.99
69715;HTU21D;56981;53.532;49.398;2022-07-06T14:45:57;25.02;40.04
69715;HTU21D;56981;53.532;49.398;2022-07-06T14:48:23;25.06;41.29
69715;HTU21D;56981;53.532;49.398;2022-07-06T14:50:49;25.02;40.17
69715;HTU21D;56981;53.532;49.398;2022-07-06T14:53:15;25.01;40.41
69715;HTU21D;56981;53.532;49.398;2022-07-06T14:55:41;24.97;40.81
69715;HTU21D;56981;53.532;49.398;2022-07-06T14:58:07;24.95;41.07
69715;HTU21D;56981;53.532;49.398;2022-07-06T15:00:33;24.95;40.58
69715;HTU21D;56981;53.532;49.398;2022-07-06T15:02:58;24.94;41.20
69715;HTU21D;56981;53.532;49.398;2022-07-06T15:05:24;24.91;40.65
69715;HTU21D;56981;53.532;49.398;2022-07-06T15:07:50;24.85;41.26
69715;HTU21D;56981;53.532;49.398;2022-07-06T15:10:16;24.86;41.48
69715;HTU21D;56981;53.532;49.398;2022-07-06T15:12:42;24.83;41.05
69715;HTU21D;56981;53.532;49.398;2022-07-06T15:15:08;24.79;41.98